• Join FlightAware (Why Join?)
  • Login
  • US Flag 
07:10PM EDT


 

Airport Tracker/Info


-or-


 

Live Flight TrackerFlight Track Log ✈ SWA482 ✈ 08-May-2013 ✈ KPHX - KABQ

Flight Track Log - Related Links

Times and Time Zones

All times are in EDT time to prevent confusion due to time zone crossing. See the SWA482 flight status page for this flight to view local times or setup timezone preferences in your user account.

Time Position Orientation Groundspeed Altitude Reporting Facility
EDT Latitude Longitude Course Direction KTS MPH feet Rate Location/Type
09:15PM 33.4333 -112.0667 269° West 176 203 2,900  Level Phoenix TRACON
09:16PM 33.4333 -112.1333 270° West 224 258 5,600 2,340 Climbing Phoenix TRACON
09:17PM 33.4350 -112.1544 275° West 210 242 6,100 2,400 Climbing Albuquerque Center
09:18PM 33.4825 -112.1906 328° Northwest 261 300 9,000 2,580 Climbing Albuquerque Center
09:19PM 33.5131 -112.1133 65° Northeast 266 306 11,500 2,400 Climbing Albuquerque Center
09:20PM 33.5400 -111.9856 76° East 327 376 14,000 2,760 Climbing Albuquerque Center
09:21PM 33.5644 -111.8694 76° East 357 411 17,200 3,000 Climbing Albuquerque Center
09:22PM 33.5906 -111.7472 76° East 374 430 20,100 2,580 Climbing Albuquerque Center
09:23PM 33.6167 -111.6194 76° East 392 451 22,600 2,220 Climbing Albuquerque Center
09:24PM 33.6447 -111.4822 76° East 416 479 24,700 1,980 Climbing Albuquerque Center
09:25PM 33.6819 -111.3422 72° East 439 505 26,700 2,040 Climbing Albuquerque Center
09:26PM 33.7328 -111.1672 71° East 460 529 29,000 1,920 Climbing Albuquerque Center
09:27PM 33.7750 -111.0153 71° East 476 548 30,700 1,500 Climbing Albuquerque Center
09:28PM 33.8183 -110.8622 71° East 481 554 32,100 1,320 Climbing Albuquerque Center
09:29PM 33.8622 -110.7014 72° East 493 567 33,500 1,380 Climbing Albuquerque Center
09:30PM 33.9069 -110.5408 71° East 502 578 35,000 720 Climbing Albuquerque Center
09:31PM 33.9497 -110.3831 72° East 503 579 35,000  Level Albuquerque Center
09:32PM 33.9917 -110.2269 72° East 498 573 35,000  Level Albuquerque Center
09:33PM 34.0439 -110.0381 72° East 500 575 35,000  Level Albuquerque Center
09:34PM 34.0839 -109.8864 72° East 499 574 35,000  Level Albuquerque Center
09:35PM 34.1317 -109.7086 72° East 499 574 35,000  Level Albuquerque Center
09:36PM 34.1722 -109.5569 72° East 499 574 35,000  Level Albuquerque Center
09:37PM 34.2122 -109.4039 72° East 499 574 35,000  Level Albuquerque Center
09:38PM 34.2542 -109.2461 72° East 499 574 35,000  Level Albuquerque Center
09:39PM 34.2994 -109.0758 72° East 496 571 35,000  Level Albuquerque Center
09:40PM 34.3450 -108.8992 73° East 494 568 35,000  Level Albuquerque Center
09:41PM 34.3850 -108.7475 72° East 495 570 35,000  Level Albuquerque Center
09:42PM 34.4308 -108.5672 73° East 499 574 35,000 -540 Level Albuquerque Center
09:43PM 34.4728 -108.4100 72° East 500 575 33,900 -1,980 Descending Albuquerque Center
09:44PM 34.5128 -108.2475 73° East 501 577 31,000 -2,760 Descending Albuquerque Center
09:45PM 34.5533 -108.0847 73° East 505 581 28,300 -2,460 Descending Albuquerque Center
09:46PM 34.5933 -107.9297 73° East 491 565 26,000 -2,100 Descending Albuquerque Center
09:47PM 34.6325 -107.7803 72° East 473 544 24,100 -2,040 Descending Albuquerque Center
09:48PM 34.6769 -107.6772 62° Northeast 436 502 22,500 -2,100 Descending Albuquerque Center
09:48PM 34.6897 -107.6517 59° Northeast 443 510 22,000 -2,220 Descending Albuquerque Center
09:49PM 34.7319 -107.5475 64° Northeast 425 489 20,300 -1,980 Descending Albuquerque Center
09:49PM 34.7447 -107.5264 54° Northeast 426 490 20,000 -1,920 Descending Albuquerque Center
09:50PM 34.7917 -107.4092 64° Northeast 396 456 18,200 -1,980 Descending Albuquerque Center
09:51PM 34.8428 -107.2956 61° Northeast 384 442 16,500 -1,440 Descending Albuquerque Center
09:52PM 34.8861 -107.1867 64° Northeast 356 410 15,400 -1,140 Descending Albuquerque Center
09:53PM 34.8958 -107.1633 63° Northeast 362 417 15,100 -1,380 Descending Albuquerque Center
09:53PM 34.9081 -107.0775 80° East 326 375 14,000 -1,500 Descending Albuquerque Center
09:54PM 34.9108 -107.0525 82° East 341 392 13,600 -1,500 Descending Albuquerque Center
09:55PM 34.9239 -106.9436 82° East 333 383 12,100 -1,500 Descending Albuquerque Center
09:56PM 34.9369 -106.8372 81° East 317 365 10,700 -1,080 Descending Albuquerque Center
09:56PM 34.9489 -106.7461 81° East 288 331 10,200 -840 Descending Albuquerque Center
09:57PM 34.9550 -106.6592 85° East 254 292 9,200 -900 Descending Albuquerque Center
09:58PM 34.9644 -106.5789 82° East 231 266 8,400 -900 Descending Albuquerque Center
09:59PM 34.9650 -106.5567 88° East 258 297 8,100 -1,260 Descending Albuquerque Center
10:00PM 35.0017 -106.5228 37° Northeast 200 230 7,000 -1,140 Descending Albuquerque Center
10:01PM 35.0425 -106.5419 339° North 188 216 5,900 -780 Descending Albuquerque Center
10:02PM 35.0453 -106.5933 274° West 161 185 5,300 -600 Descending Albuquerque Center